createdAt,value
2023-03-07T00:02:04.133Z,98623.53
2023-03-07T00:04:52.315Z,98625.63
2023-03-07T00:07:40.198Z,98625.28
2023-03-07T00:10:28.282Z,98623.81
2023-03-07T00:13:16.138Z,98625.16
2023-03-07T00:16:11.862Z,98612.69
2023-03-07T00:19:00.799Z,98620.53
2023-03-07T00:21:48.947Z,98623.59
2023-03-07T00:24:37.492Z,98618.97
2023-03-07T00:27:26.106Z,98614.63
2023-03-07T00:30:15.012Z,98611.91
2023-03-07T00:33:03.153Z,98614.28
2023-03-07T00:36:06.513Z,98610.38
2023-03-07T00:38:54.973Z,98608.06
2023-03-07T00:41:42.978Z,98594.41
2023-03-07T00:44:32.481Z,98629.59
2023-03-07T00:47:20.614Z,98604.31
2023-03-07T00:50:09.761Z,98603.69
2023-03-07T00:52:58.259Z,98579.75
2023-03-07T00:56:03.254Z,98598.25
2023-03-07T00:58:54.673Z,98587.38
2023-03-07T01:01:42.657Z,98590.47
2023-03-07T01:04:30.949Z,98576.84
2023-03-07T01:07:18.857Z,98570.97
2023-03-07T01:10:07.352Z,98576.84
2023-03-07T01:12:57.739Z,98572.84
2023-03-07T01:15:46.018Z,98584.47
2023-03-07T01:18:36.429Z,98561.44
2023-03-07T01:21:34.471Z,98572.75
2023-03-07T01:24:22.895Z,98571.13
2023-03-07T01:27:11.192Z,98565.25
2023-03-07T01:30:02.012Z,98555.66
2023-03-07T01:32:56.508Z,98559.72
2023-03-07T01:35:49.858Z,98544.13
2023-03-07T01:38:38.307Z,98547.69
2023-03-07T01:41:29.932Z,98568.25
2023-03-07T01:44:22.707Z,98549.91
2023-03-07T01:47:10.766Z,98548.81
2023-03-07T01:50:02.960Z,98548.03
2023-03-07T01:52:59.287Z,98533.56
2023-03-07T01:55:48.681Z,98527.03
2023-03-07T01:58:39.423Z,98538.66
2023-03-07T02:01:28.774Z,98529.41
2023-03-07T02:04:25.038Z,98536.78
2023-03-07T02:07:14.282Z,98524.38
2023-03-07T02:10:04.232Z,98527.75
2023-03-07T02:12:54.233Z,98521.47
2023-03-07T02:15:42.962Z,98508.50
2023-03-07T02:18:35.873Z,98512.34
2023-03-07T02:21:38.349Z,98520.91
2023-03-07T02:24:34.816Z,98511.56
2023-03-07T02:27:26.045Z,98502.09
2023-03-07T02:30:14.088Z,98499.25
2023-03-07T02:33:02.081Z,98492.63
2023-03-07T02:35:49.991Z,98482.91
2023-03-07T02:38:41.955Z,98483.59
2023-03-07T02:41:32.696Z,98486.66
2023-03-07T02:44:23.424Z,98481.06
2023-03-07T02:47:11.600Z,98476.03
2023-03-07T02:49:59.500Z,98467.84
2023-03-07T02:52:47.576Z,98470.50
2023-03-07T02:55:35.561Z,98479.41
2023-03-07T02:58:23.644Z,98481.69
2023-03-07T03:01:11.806Z,98462.59
2023-03-07T03:03:59.743Z,98463.28
2023-03-07T03:06:49.960Z,98456.22
2023-03-07T03:09:37.864Z,98452.63
2023-03-07T03:12:25.822Z,98447.78
2023-03-07T03:15:13.988Z,98450.16
2023-03-07T03:18:02.444Z,98442.81
2023-03-07T03:20:50.553Z,98454.41
2023-03-07T03:23:39.028Z,98446.59
2023-03-07T03:26:27.747Z,98448.19
2023-03-07T03:29:15.659Z,98440.25
2023-03-07T03:32:04.462Z,98437.97
2023-03-07T03:34:52.546Z,98435.66
2023-03-07T03:37:41.242Z,98429.31
2023-03-07T03:40:29.135Z,98436.59
2023-03-07T03:43:20.423Z,98428.75
2023-03-07T03:46:11.265Z,98436.19
2023-03-07T03:48:59.084Z,98442.66
2023-03-07T03:51:47.031Z,98431.72
2023-03-07T03:54:35.147Z,98418.78
2023-03-07T03:57:25.461Z,98414.84
2023-03-07T04:00:15.846Z,98421.84
2023-03-07T04:03:03.889Z,98419.88
2023-03-07T04:05:51.698Z,98410.91
2023-03-07T04:08:41.183Z,98416.72
2023-03-07T04:11:29.023Z,98402.97
2023-03-07T04:14:16.975Z,98404.00
2023-03-07T04:17:04.916Z,98397.44
2023-03-07T04:19:53.028Z,98409.47
2023-03-07T04:22:40.821Z,98409.13
2023-03-07T04:25:28.639Z,98420.38
2023-03-07T04:28:19.975Z,98392.13
2023-03-07T04:31:07.808Z,98388.09
2023-03-07T04:33:56.896Z,98390.06
2023-03-07T04:36:44.751Z,98391.88
2023-03-07T04:39:32.569Z,98403.06
2023-03-07T04:42:20.481Z,98391.44
2023-03-07T04:45:09.396Z,98377.69
2023-03-07T04:47:57.206Z,98379.56
2023-03-07T04:50:45.103Z,98387.00
2023-03-07T04:53:33.095Z,98381.78
2023-03-07T04:56:21.154Z,98386.22
2023-03-07T04:59:09.350Z,98381.53
2023-03-07T05:01:57.602Z,98360.53
2023-03-07T05:04:46.186Z,98371.72
2023-03-07T05:07:34.218Z,98362.16
2023-03-07T05:10:22.129Z,98362.09
2023-03-07T05:13:11.159Z,98359.34
2023-03-07T05:16:00.085Z,98362.09
2023-03-07T05:18:48.453Z,98344.16
2023-03-07T05:21:38.741Z,98350.38
2023-03-07T05:24:26.755Z,98357.63
2023-03-07T05:27:14.905Z,98353.44
2023-03-07T05:30:06.052Z,98353.44
2023-03-07T05:32:53.943Z,98348.84
2023-03-07T05:35:41.977Z,98354.31
2023-03-07T05:38:30.190Z,98355.06
2023-03-07T05:41:18.997Z,98350.38
2023-03-07T05:44:06.963Z,98347.97
2023-03-07T05:46:54.820Z,98343.19
2023-03-07T05:49:43.076Z,98337.75
2023-03-07T05:52:32.001Z,98352.91
2023-03-07T05:55:20.014Z,98328.00
2023-03-07T05:58:07.989Z,98335.34
2023-03-07T06:00:58.363Z,98329.88
2023-03-07T06:03:50.347Z,98319.16
2023-03-07T06:06:38.276Z,98342.22
2023-03-07T06:09:26.348Z,98324.22
2023-03-07T06:12:14.431Z,98334.28
2023-03-07T06:15:02.757Z,98333.41
2023-03-07T06:17:52.562Z,98327.94
2023-03-07T06:20:40.589Z,98332.91
2023-03-07T06:23:31.747Z,98336.75
2023-03-07T06:26:19.716Z,98334.34
2023-03-07T06:29:07.660Z,98334.25
2023-03-07T06:31:55.834Z,98340.47
2023-03-07T06:34:43.952Z,98319.34
2023-03-07T06:37:35.136Z,98340.81
2023-03-07T06:40:23.146Z,98332.50
2023-03-07T06:43:15.023Z,98343.00
2023-03-07T06:46:03.765Z,98336.34
2023-03-07T06:48:52.617Z,98349.91
2023-03-07T06:51:40.929Z,98341.94
2023-03-07T06:54:28.770Z,98329.38
2023-03-07T06:57:16.645Z,98335.81
2023-03-07T07:00:07.030Z,98336.50
2023-03-07T07:02:55.200Z,98338.03
2023-03-07T07:05:43.486Z,98353.69
2023-03-07T07:08:31.446Z,98338.03
2023-03-07T07:11:19.366Z,98332.91
2023-03-07T07:14:07.218Z,98331.72
2023-03-07T07:16:55.090Z,98335.72
2023-03-07T07:19:42.995Z,98336.72
2023-03-07T07:22:31.348Z,98333.13
2023-03-07T07:25:19.326Z,98328.66
2023-03-07T07:28:07.207Z,98326.56
2023-03-07T07:30:55.230Z,98330.53
2023-03-07T07:33:43.505Z,98327.25
2023-03-07T07:36:32.723Z,98335.34
2023-03-07T07:39:21.823Z,98331.41
2023-03-07T07:42:11.293Z,98336.88
2023-03-07T07:44:59.149Z,98336.88
2023-03-07T07:47:51.799Z,98340.91
2023-03-07T07:50:39.759Z,98328.69
2023-03-07T07:53:27.575Z,98338.75
2023-03-07T07:56:15.478Z,98339.28
2023-03-07T07:59:03.410Z,98329.78
2023-03-07T08:01:51.622Z,98340.25
2023-03-07T08:04:39.823Z,98334.78
2023-03-07T08:07:28.027Z,98335.78
2023-03-07T08:10:16.994Z,98324.19
2023-03-07T08:13:04.848Z,98334.13
2023-03-07T08:15:52.990Z,98329.66
2023-03-07T08:18:42.549Z,98327.25
2023-03-07T08:21:31.154Z,98323.97
2023-03-07T08:24:19.848Z,98314.19
2023-03-07T08:27:09.558Z,98312.44
2023-03-07T08:29:57.971Z,98308.38
2023-03-07T08:32:46.208Z,98300.13
2023-03-07T08:35:34.595Z,98299.53
2023-03-07T08:38:22.795Z,98305.88
2023-03-07T08:41:10.711Z,98293.19
2023-03-07T08:43:58.679Z,98273.91
2023-03-07T08:46:46.611Z,98285.53
2023-03-07T08:49:34.543Z,98280.97
2023-03-07T08:52:22.677Z,98288.75
2023-03-07T08:55:11.040Z,98291.66
2023-03-07T08:57:58.866Z,98285.72
2023-03-07T09:00:47.040Z,98286.22
2023-03-07T09:03:36.554Z,98278.75
2023-03-07T09:06:25.438Z,98288.66
2023-03-07T09:09:13.654Z,98278.66
2023-03-07T09:12:01.533Z,98285.25
2023-03-07T09:14:49.644Z,98284.19
2023-03-07T09:17:37.544Z,98282.88
2023-03-07T09:20:25.987Z,98282.06
2023-03-07T09:23:13.872Z,98277.91
2023-03-07T09:26:03.238Z,98287.34
2023-03-07T09:28:51.141Z,98283.81
2023-03-07T09:31:41.265Z,98288.50
2023-03-07T09:34:29.602Z,98297.97
2023-03-07T09:37:18.872Z,98280.28
2023-03-07T09:40:08.145Z,98283.81
2023-03-07T09:43:21.096Z,98269.78
2023-03-07T09:46:40.599Z,98275.59
2023-03-07T09:49:52.336Z,98268.47
2023-03-07T09:52:42.176Z,98269.69
2023-03-07T09:55:32.467Z,98258.56
2023-03-07T09:58:23.725Z,98248.63
2023-03-07T10:01:15.765Z,98258.13
2023-03-07T10:04:07.075Z,98251.06
2023-03-07T10:06:58.698Z,98252.16
2023-03-07T10:09:46.852Z,98255.69
2023-03-07T10:12:49.622Z,98252.63
2023-03-07T10:15:47.503Z,98254.81
2023-03-07T10:19:26.347Z,98252.59
2023-03-07T10:22:50.979Z,98250.47
2023-03-07T10:26:05.007Z,98242.56
2023-03-07T10:28:53.924Z,98232.28
2023-03-07T10:31:55.715Z,98241.19
2023-03-07T10:34:44.221Z,98237.19
2023-03-07T10:37:46.299Z,98263.44
2023-03-07T10:40:44.253Z,98239.16
2023-03-07T10:43:34.085Z,98233.22
2023-03-07T10:46:30.279Z,98238.69
2023-03-07T10:49:32.579Z,98224.66
2023-03-07T10:52:39.674Z,98225.72
2023-03-07T10:56:12.568Z,98221.47
2023-03-07T10:59:05.804Z,98220.72
2023-03-07T11:01:57.807Z,98207.41
2023-03-07T11:04:47.366Z,98224.38
2023-03-07T11:07:37.001Z,98211.09
2023-03-07T11:10:40.335Z,98208.16
2023-03-07T11:13:29.449Z,98217.47
2023-03-07T11:16:21.968Z,98188.47
2023-03-07T11:19:35.444Z,98201.63
2023-03-07T11:22:40.080Z,98201.16
2023-03-07T11:25:28.066Z,98193.69
2023-03-07T11:28:36.031Z,98182.22
2023-03-07T11:31:28.681Z,98181.91
2023-03-07T11:34:23.021Z,98168.19
2023-03-07T11:37:53.159Z,98183.88
2023-03-07T11:40:54.633Z,98175.91
2023-03-07T11:43:46.371Z,98174.00
2023-03-07T11:46:59.180Z,98171.19
2023-03-07T11:50:06.767Z,98160.06
2023-03-07T11:53:30.685Z,98159.72
2023-03-07T11:56:41.352Z,98154.38
2023-03-07T11:59:59.500Z,98168.91
2023-03-07T12:03:27.267Z,98155.75
2023-03-07T12:07:08.705Z,98153.59
2023-03-07T12:10:45.901Z,98150.69
2023-03-07T12:13:50.156Z,98150.25
2023-03-07T12:16:50.748Z,98151.28
2023-03-07T12:20:26.136Z,98142.13
2023-03-07T12:23:24.301Z,98140.16
2023-03-07T12:26:32.851Z,98135.50
2023-03-07T12:29:38.805Z,98129.81
2023-03-07T12:32:28.362Z,98133.03
2023-03-07T12:35:36.779Z,98137.47
2023-03-07T12:38:44.632Z,98144.66
2023-03-07T12:41:56.755Z,98130.78
2023-03-07T12:45:11.698Z,98125.94
2023-03-07T12:48:47.198Z,98120.41
2023-03-07T12:51:46.209Z,98113.06
2023-03-07T12:54:44.210Z,98121.75
2023-03-07T12:57:39.205Z,98119.31
2023-03-07T13:00:27.162Z,98107.97
2023-03-07T13:03:51.437Z,98099.97
2023-03-07T13:06:41.799Z,98102.00
2023-03-07T13:09:33.398Z,98104.16
2023-03-07T13:12:24.807Z,98093.09
2023-03-07T13:15:18.559Z,98098.19
2023-03-07T13:18:29.662Z,98090.81
2023-03-07T13:21:33.792Z,98095.59
2023-03-07T13:24:49.803Z,98095.59
2023-03-07T13:27:40.777Z,98084.44
2023-03-07T13:30:34.106Z,98091.19
2023-03-07T13:33:28.577Z,98086.56
2023-03-07T13:36:39.091Z,98095.72
2023-03-07T13:39:40.855Z,98090.09
2023-03-07T13:42:49.510Z,98089.63
2023-03-07T13:45:40.282Z,98091.19
2023-03-07T13:48:28.268Z,98090.91
2023-03-07T13:51:16.382Z,98091.78
2023-03-07T13:54:07.333Z,98088.81
2023-03-07T13:56:55.901Z,98092.13
2023-03-07T13:59:49.325Z,98088.81
2023-03-07T14:02:43.445Z,98096.81
2023-03-07T14:05:34.225Z,98084.47
2023-03-07T14:08:27.827Z,98090.38
2023-03-07T14:11:35.505Z,98108.16
2023-03-07T14:14:57.127Z,98101.28
2023-03-07T14:18:11.005Z,98111.13
2023-03-07T14:21:27.498Z,98110.81
2023-03-07T14:24:59.860Z,98101.69
2023-03-07T14:28:01.948Z,98111.88
2023-03-07T14:31:01.778Z,98097.53
2023-03-07T14:33:49.640Z,98106.09
2023-03-07T14:36:37.609Z,98105.66
2023-03-07T14:39:40.886Z,98115.72
2023-03-07T14:42:34.766Z,98107.34
2023-03-07T14:45:42.626Z,98115.28
2023-03-07T14:49:34.039Z,98118.34
2023-03-07T14:52:30.780Z,98118.50
2023-03-07T14:55:23.336Z,98115.59
2023-03-07T14:58:24.800Z,98130.28
2023-03-07T15:01:17.167Z,98120.22
2023-03-07T15:04:28.628Z,98120.81
2023-03-07T15:07:21.956Z,98128.28
2023-03-07T15:10:34.087Z,98123.84
2023-03-07T15:13:31.368Z,98121.72
2023-03-07T15:16:29.842Z,98120.81
2023-03-07T15:19:39.023Z,98110.09
2023-03-07T15:22:32.122Z,98117.75
2023-03-07T15:25:25.902Z,98123.25
2023-03-07T15:28:21.169Z,98119.09
2023-03-07T15:31:09.585Z,98111.34
2023-03-07T15:34:12.457Z,98106.13
2023-03-07T15:38:00.637Z,98105.56
2023-03-07T15:40:49.174Z,98097.91
2023-03-07T15:43:37.489Z,98104.78
2023-03-07T15:46:30.800Z,98099.13
2023-03-07T15:49:50.031Z,98109.97
2023-03-07T15:52:39.736Z,98100.81
2023-03-07T15:55:28.083Z,98110.13
2023-03-07T15:58:16.450Z,98096.41
2023-03-07T16:01:26.024Z,98113.66
2023-03-07T16:04:46.657Z,98106.78
2023-03-07T16:07:34.555Z,98115.50
2023-03-07T16:10:28.040Z,98112.91
2023-03-07T16:13:19.668Z,98109.09
2023-03-07T16:16:21.615Z,98102.69
2023-03-07T16:19:10.088Z,98119.78
2023-03-07T16:21:58.143Z,98106.66
2023-03-07T16:24:46.401Z,98112.16
2023-03-07T16:27:34.943Z,98117.81
2023-03-07T16:30:29.345Z,98103.44
2023-03-07T16:33:17.789Z,98104.84
2023-03-07T16:36:06.119Z,98098.72
2023-03-07T16:38:54.023Z,98113.81
2023-03-07T16:41:48.534Z,98099.34
2023-03-07T16:44:39.910Z,98098.09
2023-03-07T16:47:30.524Z,98097.03
2023-03-07T16:50:24.767Z,98108.19
2023-03-07T16:53:12.708Z,98098.09
2023-03-07T16:56:00.773Z,98095.53
2023-03-07T16:58:48.853Z,98106.03
2023-03-07T17:01:36.858Z,98103.78
2023-03-07T17:04:24.764Z,98092.00
2023-03-07T17:07:22.206Z,98106.38
2023-03-07T17:10:11.722Z,98105.75
2023-03-07T17:13:01.464Z,98107.13
2023-03-07T17:15:50.304Z,98114.47
2023-03-07T17:18:38.933Z,98116.72
2023-03-07T17:21:27.104Z,98129.25
2023-03-07T17:24:14.986Z,98128.94
2023-03-07T17:27:03.814Z,98118.13
2023-03-07T17:29:58.383Z,98121.63
2023-03-07T17:32:47.580Z,98134.59
2023-03-07T17:38:42.414Z,98148.47
2023-03-07T17:41:30.352Z,98119.16
2023-03-07T17:44:18.719Z,98125.75
2023-03-07T17:47:06.858Z,98116.25
2023-03-07T17:49:54.955Z,98135.81
2023-03-07T17:52:43.659Z,98131.06
2023-03-07T17:55:32.826Z,98138.72
2023-03-07T17:58:20.693Z,98136.09
2023-03-07T18:01:11.451Z,98149.53
2023-03-07T18:04:03.162Z,98144.97
2023-03-07T18:06:51.158Z,98145.56
2023-03-07T18:09:39.242Z,98151.63
2023-03-07T18:12:27.233Z,98138.97
2023-03-07T18:15:18.161Z,98155.00
2023-03-07T18:18:07.128Z,98141.28
2023-03-07T18:21:07.977Z,98144.19
2023-03-07T18:23:56.047Z,98148.31
2023-03-07T18:26:44.374Z,98153.63
2023-03-07T18:29:32.391Z,98153.50
2023-03-07T18:32:20.766Z,98148.00
2023-03-07T18:35:09.335Z,98152.72
2023-03-07T18:37:58.850Z,98169.50
2023-03-07T18:40:48.101Z,98163.09
2023-03-07T18:43:36.347Z,98163.25
2023-03-07T18:46:27.987Z,98168.44
2023-03-07T18:49:16.259Z,98171.97
2023-03-07T18:52:04.679Z,98172.59
2023-03-07T18:54:52.556Z,98180.19
2023-03-07T18:57:40.395Z,98176.09
2023-03-07T19:00:28.406Z,98164.03
2023-03-07T19:03:16.693Z,98175.34
2023-03-07T19:06:04.916Z,98176.53
2023-03-07T19:08:53.307Z,98183.09
2023-03-07T19:11:41.271Z,98182.19
2023-03-07T19:14:29.349Z,98181.09
2023-03-07T19:17:17.395Z,98167.16
2023-03-07T19:20:06.363Z,98170.53
2023-03-07T19:22:54.700Z,98182.28
2023-03-07T19:25:43.049Z,98196.78
2023-03-07T19:28:31.399Z,98196.63
2023-03-07T19:31:28.862Z,98199.94
2023-03-07T19:34:17.150Z,98197.97
2023-03-07T19:37:05.019Z,98208.34
2023-03-07T19:39:53.799Z,98213.81
2023-03-07T19:42:41.805Z,98219.75
2023-03-07T19:45:33.032Z,98217.16
2023-03-07T19:48:25.259Z,98226.59
2023-03-07T19:51:19.781Z,98237.47
2023-03-07T19:54:08.852Z,98237.41
2023-03-07T19:56:56.751Z,98258.72
2023-03-07T19:59:44.888Z,98270.81
2023-03-07T20:02:33.972Z,98284.25
2023-03-07T20:05:21.913Z,98296.88
2023-03-07T20:08:10.532Z,98296.03
2023-03-07T20:11:14.833Z,98297.13
2023-03-07T20:14:05.554Z,98293.50
2023-03-07T20:16:53.831Z,98296.91
2023-03-07T20:19:41.873Z,98306.47
2023-03-07T20:22:30.173Z,98309.84
2023-03-07T20:25:18.777Z,98310.91
2023-03-07T20:28:06.951Z,98308.94
2023-03-07T20:30:54.842Z,98316.69
2023-03-07T20:33:46.091Z,98310.25
2023-03-07T20:36:36.374Z,98316.00
2023-03-07T20:39:26.758Z,98314.25
2023-03-07T20:42:14.712Z,98319.09
2023-03-07T20:45:02.631Z,98319.50
2023-03-07T20:47:50.537Z,98324.28
2023-03-07T20:50:38.328Z,98333.06
2023-03-07T20:53:26.456Z,98334.28
2023-03-07T20:56:14.950Z,98339.34
2023-03-07T20:59:03.578Z,98336.75
2023-03-07T21:01:51.573Z,98342.19
2023-03-07T21:04:39.548Z,98348.19
2023-03-07T21:07:27.532Z,98345.34
2023-03-07T21:10:15.727Z,98343.75
2023-03-07T21:13:03.649Z,98357.84
2023-03-07T21:16:00.609Z,98367.63
2023-03-07T21:18:49.270Z,98371.25
2023-03-07T21:21:37.734Z,98376.09
2023-03-07T21:24:25.750Z,98368.19
2023-03-07T21:27:14.270Z,98372.97
2023-03-07T21:30:02.150Z,98358.50
2023-03-07T21:32:50.078Z,98371.03
2023-03-07T21:35:39.165Z,98362.03
2023-03-07T21:38:27.210Z,98370.59
2023-03-07T21:41:17.117Z,98378.56
2023-03-07T21:44:06.283Z,98378.13
2023-03-07T21:46:56.682Z,98374.53
2023-03-07T21:49:44.565Z,98383.63
2023-03-07T21:52:32.817Z,98379.44
2023-03-07T21:55:25.149Z,98402.28
2023-03-07T21:58:13.180Z,98399.56
2023-03-07T22:01:01.873Z,98412.34
2023-03-07T22:03:53.704Z,98409.38
2023-03-07T22:06:41.827Z,98412.66
2023-03-07T22:09:32.218Z,98413.34
2023-03-07T22:12:20.433Z,98412.00
2023-03-07T22:15:09.090Z,98425.41
2023-03-07T22:17:57.024Z,98427.38
2023-03-07T22:20:45.303Z,98426.44
2023-03-07T22:23:33.803Z,98426.94
2023-03-07T22:26:22.397Z,98426.19
2023-03-07T22:29:10.412Z,98428.16
2023-03-07T22:31:58.473Z,98436.06
2023-03-07T22:34:46.941Z,98436.50
2023-03-07T22:37:38.228Z,98438.03
2023-03-07T22:40:26.671Z,98442.19
2023-03-07T22:43:14.787Z,98441.13
2023-03-07T22:46:03.748Z,98445.97
2023-03-07T22:48:53.812Z,98456.78
2023-03-07T22:51:41.743Z,98454.88
2023-03-07T22:54:32.187Z,98447.84
2023-03-07T22:57:20.615Z,98437.63
2023-03-07T23:03:14.458Z,98451.88
2023-03-07T23:06:02.673Z,98448.03
2023-03-07T23:08:53.718Z,98454.00
2023-03-07T23:11:43.872Z,98457.19
2023-03-07T23:14:31.830Z,98457.94
2023-03-07T23:17:19.680Z,98453.34
2023-03-07T23:20:08.954Z,98448.28
2023-03-07T23:22:56.874Z,98454.53
2023-03-07T23:25:45.230Z,98454.19
2023-03-07T23:28:33.734Z,98452.38
2023-03-07T23:31:30.779Z,98452.31
2023-03-07T23:34:20.495Z,98456.50
2023-03-07T23:37:08.488Z,98449.66
2023-03-07T23:39:58.581Z,98453.94
2023-03-07T23:42:46.520Z,98457.84
2023-03-07T23:45:34.400Z,98445.50
2023-03-07T23:48:22.610Z,98452.66
2023-03-07T23:51:10.527Z,98454.34
2023-03-07T23:53:58.406Z,98442.84
2023-03-07T23:56:49.342Z,98454.53
2023-03-07T23:59:37.245Z,98445.97
